Time;durP1;ratioP1;P1;durP2;ratioP2;P2;SDS_P1;SDS_P2;PMS_P1;PMS_P2;Temp;Humidity;BMP_temperature;BMP_pressure;BME280_temperature;BME280_humidity;BME280_pressure;Samples;Min_cycle;Max_cycle;Signal;HPM_P1;HPM_P2
2024/03/21 00:01:58;;;;;;;15.50;12.70;;;13.20;1.00;;;;;;5123884;27;20931;-75
2024/03/21 00:04:25;;;;;;;19.90;12.50;;;13.20;1.00;;;;;;5122127;27;20460;-74
2024/03/21 00:06:53;;;;;;;15.57;11.87;;;13.10;1.00;;;;;;5125624;27;21239;-74
2024/03/21 00:09:25;;;;;;;14.97;12.67;;;13.10;1.00;;;;;;5130155;27;20522;-74
2024/03/21 00:11:51;;;;;;;14.27;11.50;;;13.10;1.00;;;;;;5125719;27;20513;-74
2024/03/21 00:14:19;;;;;;;13.60;12.17;;;13.20;1.00;;;;;;5125293;27;21671;-73
2024/03/21 00:16:45;;;;;;;15.17;12.17;;;13.20;1.00;;;;;;5121287;27;21271;-73
2024/03/21 00:19:12;;;;;;;15.97;12.97;;;13.10;1.00;;;;;;5110073;27;20554;-74
2024/03/21 00:21:39;;;;;;;14.00;12.40;;;13.20;1.00;;;;;;5102537;27;20465;-74
2024/03/21 00:24:08;;;;;;;12.93;11.63;;;13.10;1.00;;;;;;5108285;27;21146;-75
2024/03/21 00:26:34;;;;;;;16.23;12.63;;;13.20;1.00;;;;;;5122397;27;20963;-74
2024/03/21 00:29:04;;;;;;;12.97;11.33;;;13.10;1.00;;;;;;5110342;27;20465;-74
2024/03/21 00:31:30;;;;;;;13.20;11.80;;;13.20;1.00;;;;;;5108085;27;20963;-75
2024/03/21 00:33:57;;;;;;;15.60;12.30;;;13.20;1.00;;;;;;5117416;27;21572;-74
2024/03/21 00:36:23;;;;;;;14.43;13.00;;;13.20;1.00;;;;;;5119565;27;20579;-75
2024/03/21 00:38:50;;;;;;;14.33;12.83;;;13.10;1.00;;;;;;5116666;27;20501;-74
2024/03/21 00:41:17;;;;;;;13.83;12.20;;;13.00;1.00;;;;;;5121072;27;20478;-75
2024/03/21 00:43:46;;;;;;;13.23;11.33;;;13.00;1.00;;;;;;5124844;27;20909;-74
2024/03/21 00:46:12;;;;;;;15.00;12.50;;;13.00;1.00;;;;;;5124682;27;20476;-72
2024/03/21 00:48:39;;;;;;;16.47;14.00;;;13.00;1.00;;;;;;5126154;27;20464;-74
2024/03/21 00:51:05;;;;;;;13.60;12.23;;;13.00;1.00;;;;;;5104790;27;20982;-74
2024/03/21 00:53:32;;;;;;;14.23;11.70;;;13.10;1.00;;;;;;5127047;27;20559;-73
2024/03/21 00:55:59;;;;;;;17.40;13.07;;;13.20;1.00;;;;;;5129652;27;20569;-74
2024/03/21 00:58:27;;;;;;;14.03;12.53;;;13.20;1.00;;;;;;5126004;27;20456;-73
2024/03/21 01:00:53;;;;;;;14.70;12.67;;;13.20;1.00;;;;;;5127421;27;20536;-73
2024/03/21 01:03:20;;;;;;;14.37;12.57;;;13.20;1.00;;;;;;5127913;27;20525;-74
2024/03/21 01:05:51;;;;;;;13.70;12.17;;;13.20;1.00;;;;;;5112203;27;20507;-74
2024/03/21 01:08:18;;;;;;;13.37;11.97;;;13.10;1.00;;;;;;5124920;27;20454;-75
2024/03/21 01:10:47;;;;;;;15.30;12.90;;;13.20;1.00;;;;;;5127896;27;20542;-75
2024/03/21 01:13:14;;;;;;;14.50;12.80;;;13.10;1.00;;;;;;5124228;27;21412;-74
2024/03/21 01:15:42;;;;;;;14.03;12.60;;;13.20;1.00;;;;;;5124121;27;21249;-75
2024/03/21 01:18:09;;;;;;;14.10;12.70;;;13.10;1.00;;;;;;5123238;27;20494;-74
2024/03/21 01:20:36;;;;;;;13.87;12.30;;;12.90;1.00;;;;;;5125982;27;21142;-75
2024/03/21 01:23:03;;;;;;;15.40;13.37;;;12.90;1.00;;;;;;5109456;27;20463;-74
2024/03/21 01:25:31;;;;;;;13.87;12.37;;;12.80;1.00;;;;;;5094824;27;20561;-73
2024/03/21 01:28:00;;;;;;;13.63;12.23;;;12.80;1.00;;;;;;5117376;27;20471;-74
2024/03/21 01:30:28;;;;;;;15.40;13.53;;;12.80;1.00;;;;;;5109157;27;20959;-73
2024/03/21 01:32:57;;;;;;;15.97;13.27;;;12.80;1.00;;;;;;5119883;27;20470;-75
2024/03/21 01:35:23;;;;;;;16.00;12.90;;;12.80;1.00;;;;;;5125161;27;20873;-75
2024/03/21 01:37:50;;;;;;;14.37;12.73;;;12.80;1.00;;;;;;5126307;27;20463;-73
2024/03/21 01:40:16;;;;;;;15.43;13.30;;;12.60;1.00;;;;;;5121835;27;20550;-74
2024/03/21 01:42:44;;;;;;;14.73;13.03;;;12.60;1.00;;;;;;5127547;27;20486;-74
2024/03/21 01:45:10;;;;;;;19.60;13.50;;;12.60;1.00;;;;;;5121871;27;20969;-73
2024/03/21 01:47:37;;;;;;;16.57;13.07;;;12.60;1.00;;;;;;5121871;27;21752;-74
2024/03/21 01:50:07;;;;;;;14.57;11.60;;;12.60;1.00;;;;;;5125119;27;20876;-74
2024/03/21 01:52:36;;;;;;;19.87;13.83;;;12.60;1.00;;;;;;5128486;27;20542;-75
2024/03/21 01:55:04;;;;;;;14.17;12.50;;;12.70;1.00;;;;;;5126294;27;20561;-74
2024/03/21 01:57:32;;;;;;;15.80;12.73;;;12.70;1.00;;;;;;5121107;27;22152;-75
2024/03/21 01:59:58;;;;;;;15.93;12.40;;;12.80;1.00;;;;;;5123418;27;20490;-74
2024/03/21 02:02:26;;;;;;;14.83;12.93;;;12.70;1.00;;;;;;5124016;27;20451;-74
2024/03/21 02:04:52;;;;;;;15.27;13.07;;;12.70;1.00;;;;;;5122284;27;21366;-74
2024/03/21 02:07:21;;;;;;;15.83;13.40;;;12.70;1.00;;;;;;5123715;27;20505;-75
2024/03/21 02:09:49;;;;;;;16.27;13.07;;;12.60;1.00;;;;;;5124248;27;20473;-74
2024/03/21 02:12:43;;;;;;;14.97;12.90;;;12.70;1.00;;;;;;5122381;27;22281;-74
2024/03/21 02:15:11;;;;;;;14.13;12.63;;;12.70;1.00;;;;;;5123251;27;20477;-74
2024/03/21 02:17:39;;;;;;;14.00;12.50;;;12.70;1.00;;;;;;5128228;27;20447;-75
2024/03/21 02:20:06;;;;;;;14.83;12.20;;;12.60;1.00;;;;;;5128393;27;20502;-74
2024/03/21 02:22:37;;;;;;;14.47;12.97;;;12.50;1.00;;;;;;5124722;27;20865;-75
2024/03/21 02:25:05;;;;;;;14.07;12.67;;;12.40;1.00;;;;;;5122565;27;20955;-75
2024/03/21 02:27:31;;;;;;;13.97;11.70;;;12.40;1.00;;;;;;5127291;27;20463;-75
2024/03/21 02:29:59;;;;;;;18.43;14.17;;;12.40;1.00;;;;;;5120499;27;20479;-74
2024/03/21 02:32:25;;;;;;;17.37;13.40;;;12.40;1.00;;;;;;5127393;27;20463;-76
2024/03/21 02:34:52;;;;;;;17.27;14.10;;;12.50;1.00;;;;;;5122443;27;20475;-77
2024/03/21 02:37:18;;;;;;;14.20;12.80;;;12.30;1.00;;;;;;5120799;27;20449;-75
2024/03/21 02:39:50;;;;;;;15.07;13.47;;;12.30;1.00;;;;;;5120564;27;20482;-74
2024/03/21 02:42:18;;;;;;;15.80;13.67;;;12.30;1.00;;;;;;5123280;27;20501;-75
2024/03/21 02:44:51;;;;;;;15.23;13.37;;;12.30;1.00;;;;;;5127425;27;20474;-74
2024/03/21 02:47:18;;;;;;;15.77;13.80;;;12.30;1.00;;;;;;5122870;27;20454;-73
2024/03/21 02:49:45;;;;;;;15.23;12.97;;;12.30;1.00;;;;;;5121198;27;20531;-75
2024/03/21 02:52:11;;;;;;;18.10;14.60;;;12.20;1.00;;;;;;5126073;27;20819;-75
2024/03/21 02:54:38;;;;;;;16.50;14.20;;;12.20;1.00;;;;;;5123828;27;20480;-74
2024/03/21 02:57:09;;;;;;;16.20;14.50;;;12.10;1.00;;;;;;5126526;27;20478;-74
2024/03/21 02:59:36;;;;;;;15.20;13.47;;;11.90;1.00;;;;;;5122363;27;20486;-75
2024/03/21 03:02:03;;;;;;;15.10;13.50;;;11.90;1.00;;;;;;5125092;27;20465;-74
2024/03/21 03:04:31;;;;;;;16.60;14.43;;;11.80;1.00;;;;;;5123601;27;20871;-74
2024/03/21 03:06:57;;;;;;;17.20;14.80;;;11.80;1.00;;;;;;5120534;27;20900;-74
2024/03/21 03:09:24;;;;;;;17.10;15.33;;;11.80;1.00;;;;;;5124231;27;20449;-74
2024/03/21 03:11:50;;;;;;;17.10;14.93;;;11.50;1.00;;;;;;5124159;27;20450;-75
2024/03/21 03:14:18;;;;;;;17.07;14.30;;;11.50;1.00;;;;;;5122394;27;20538;-75
2024/03/21 03:16:44;;;;;;;16.77;15.07;;;11.40;1.00;;;;;;5124310;27;20514;-74
2024/03/21 03:19:11;;;;;;;17.70;15.90;;;11.40;1.00;;;;;;5127960;27;20486;-74
2024/03/21 03:21:37;;;;;;;16.97;15.20;;;11.40;1.00;;;;;;5127306;27;20904;-73
2024/03/21 03:24:05;;;;;;;17.10;14.53;;;11.40;1.00;;;;;;5124402;27;20469;-74
2024/03/21 03:26:31;;;;;;;18.07;16.10;;;11.40;1.00;;;;;;5123447;27;20979;-74
2024/03/21 03:28:58;;;;;;;18.83;14.90;;;11.40;1.00;;;;;;5124923;27;20469;-74
2024/03/21 03:31:26;;;;;;;18.27;15.80;;;11.30;1.00;;;;;;5126941;27;20545;-74
2024/03/21 03:36:37;;;;;;;18.70;16.37;;;11.20;1.00;;;;;;5124529;27;20511;-74
2024/03/21 03:39:04;;;;;;;20.40;16.03;;;11.00;1.00;;;;;;5122081;27;20486;-74
2024/03/21 03:41:32;;;;;;;20.03;16.17;;;11.00;1.00;;;;;;5126054;27;20554;-76
2024/03/21 03:43:59;;;;;;;17.23;15.43;;;10.90;1.00;;;;;;5123021;27;20985;-74
2024/03/21 03:46:27;;;;;;;18.63;16.10;;;10.80;1.00;;;;;;5125347;27;20600;-75
2024/03/21 03:48:54;;;;;;;17.87;15.30;;;10.80;1.00;;;;;;5117233;27;20552;-76
2024/03/21 03:51:21;;;;;;;18.33;16.53;;;10.70;1.00;;;;;;5122255;27;20506;-74
2024/03/21 03:53:48;;;;;;;19.20;17.20;;;10.70;1.00;;;;;;5102675;27;20499;-75
2024/03/21 03:56:14;;;;;;;20.10;17.33;;;10.70;1.00;;;;;;5118483;27;20440;-74
2024/03/21 03:58:40;;;;;;;19.60;17.37;;;10.70;1.00;;;;;;5119759;27;21044;-76
2024/03/21 04:01:08;;;;;;;22.20;17.27;;;10.60;1.00;;;;;;5120786;27;20457;-74
2024/03/21 04:03:35;;;;;;;20.77;16.63;;;10.60;1.00;;;;;;5120066;27;21097;-76
2024/03/21 04:06:05;;;;;;;20.07;17.03;;;10.60;1.00;;;;;;5115674;27;20463;-74
2024/03/21 04:08:31;;;;;;;19.27;17.17;;;10.50;1.00;;;;;;5107856;27;20909;-75
2024/03/21 04:10:59;;;;;;;20.13;17.33;;;10.50;1.00;;;;;;5112350;27;20456;-74
2024/03/21 04:13:26;;;;;;;20.40;17.40;;;10.40;1.00;;;;;;5122369;27;20962;-74
2024/03/21 04:15:54;;;;;;;24.20;17.80;;;10.30;1.00;;;;;;5119979;27;20457;-74
2024/03/21 04:18:20;;;;;;;21.83;17.60;;;10.40;1.00;;;;;;5118902;27;20421;-75
2024/03/21 04:20:51;;;;;;;20.57;18.37;;;10.40;1.00;;;;;;5125908;27;20468;-75
2024/03/21 04:23:17;;;;;;;22.47;17.57;;;10.40;1.00;;;;;;5125664;27;20464;-75
2024/03/21 04:25:44;;;;;;;21.63;17.60;;;10.30;1.00;;;;;;5121037;27;20442;-74
2024/03/21 04:28:10;;;;;;;20.20;18.03;;;10.30;1.00;;;;;;5119690;27;20556;-74
2024/03/21 04:30:37;;;;;;;20.97;17.33;;;10.30;1.00;;;;;;5118369;27;20514;-74
2024/03/21 04:33:03;;;;;;;21.57;19.23;;;10.20;1.00;;;;;;5118771;27;20927;-74
2024/03/21 04:35:31;;;;;;;24.13;18.37;;;10.20;1.00;;;;;;5112394;27;20455;-74
2024/03/21 04:37:59;;;;;;;24.07;19.47;;;10.10;1.00;;;;;;5118986;27;20564;-74
2024/03/21 04:40:26;;;;;;;28.50;20.37;;;10.10;1.00;;;;;;5121414;27;20530;-74
2024/03/21 04:42:53;;;;;;;21.67;19.37;;;10.10;1.00;;;;;;5106533;27;20561;-75
2024/03/21 04:45:22;;;;;;;23.03;19.90;;;10.10;1.00;;;;;;5122594;27;20454;-75
2024/03/21 04:47:50;;;;;;;25.77;20.27;;;10.10;1.00;;;;;;5126607;27;20859;-75
2024/03/21 04:50:17;;;;;;;23.80;19.87;;;10.10;1.00;;;;;;5116598;27;20969;-75
2024/03/21 04:52:43;;;;;;;28.27;21.03;;;10.10;1.00;;;;;;5123682;27;20471;-75
2024/03/21 04:55:12;;;;;;;23.20;20.67;;;10.00;1.00;;;;;;5127364;27;20456;-75
2024/03/21 04:57:38;;;;;;;23.93;19.07;;;10.10;1.00;;;;;;5125068;27;20551;-76
2024/03/21 05:00:10;;;;;;;23.20;19.20;;;10.10;1.00;;;;;;5101450;27;20457;-76
2024/03/21 05:02:37;;;;;;;23.20;19.40;;;10.00;1.00;;;;;;5118030;27;20465;-74
2024/03/21 05:05:04;;;;;;;23.17;20.50;;;10.00;1.00;;;;;;5120193;27;20508;-75
2024/03/21 05:07:30;;;;;;;27.90;21.30;;;10.00;1.00;;;;;;5124027;27;20462;-75
2024/03/21 05:09:57;;;;;;;26.30;21.70;;;9.90;1.00;;;;;;5124257;27;20481;-74
2024/03/21 05:12:26;;;;;;;23.80;19.57;;;10.00;1.00;;;;;;5130049;27;20545;-74
2024/03/21 05:14:52;;;;;;;24.97;20.03;;;10.00;1.00;;;;;;5125117;27;20449;-75
2024/03/21 05:17:20;;;;;;;26.47;21.43;;;10.00;1.00;;;;;;5123378;27;22117;-75
2024/03/21 05:19:46;;;;;;;25.57;20.93;;;10.10;1.00;;;;;;5126484;27;20473;-75
2024/03/21 05:22:13;;;;;;;24.10;21.37;;;10.10;1.00;;;;;;5121616;27;21715;-73
2024/03/21 05:24:39;;;;;;;23.67;20.00;;;10.00;1.00;;;;;;5129044;27;20494;-74
2024/03/21 05:27:06;;;;;;;24.73;21.37;;;10.00;1.00;;;;;;5128284;27;20477;-75
2024/03/21 05:29:35;;;;;;;25.90;20.00;;;10.00;1.00;;;;;;5123238;27;20455;-74
2024/03/21 05:32:03;;;;;;;27.97;21.63;;;9.90;1.00;;;;;;5111790;27;21517;-74
2024/03/21 05:34:29;;;;;;;22.07;19.67;;;9.90;1.00;;;;;;5129095;27;20440;-75
2024/03/21 05:36:59;;;;;;;28.23;22.00;;;10.00;1.00;;;;;;5111275;27;20520;-75
2024/03/21 05:39:25;;;;;;;27.27;22.10;;;10.00;1.00;;;;;;5125553;27;20453;-76
2024/03/21 05:41:54;;;;;;;26.57;21.43;;;10.00;1.00;;;;;;5126127;27;20492;-77
2024/03/21 05:44:21;;;;;;;29.47;22.57;;;10.00;1.00;;;;;;5115639;27;20539;-77
2024/03/21 05:46:52;;;;;;;25.07;21.83;;;10.10;1.00;;;;;;5111550;27;20466;-76
2024/03/21 05:49:20;;;;;;;24.23;20.93;;;10.10;1.00;;;;;;5118143;27;20506;-76
2024/03/21 05:51:49;;;;;;;28.30;21.90;;;10.10;1.00;;;;;;5128091;27;20576;-77
2024/03/21 05:54:15;;;;;;;26.40;21.77;;;10.10;1.00;;;;;;5131106;27;20446;-75
2024/03/21 05:56:42;;;;;;;28.00;21.90;;;10.10;1.00;;;;;;5122205;27;20494;-75
2024/03/21 05:59:08;;;;;;;25.57;20.53;;;10.10;1.00;;;;;;5111930;27;21048;-75
2024/03/21 06:01:35;;;;;;;23.93;21.00;;;10.10;1.00;;;;;;5122672;27;20510;-75
2024/03/21 06:04:04;;;;;;;22.40;19.70;;;10.10;1.00;;;;;;5109615;27;20508;-74
2024/03/21 06:06:32;;;;;;;23.83;20.53;;;10.20;1.00;;;;;;5111985;27;20458;-73
2024/03/21 06:08:58;;;;;;;27.47;23.60;;;10.20;1.00;;;;;;5111047;27;21161;-76
2024/03/21 06:11:25;;;;;;;26.70;21.20;;;10.20;1.00;;;;;;5125814;27;21031;-76
2024/03/21 06:13:53;;;;;;;29.60;21.50;;;10.30;1.00;;;;;;5105679;27;20453;-76
2024/03/21 06:16:20;;;;;;;26.50;21.50;;;10.30;1.00;;;;;;5120447;27;20448;-75
2024/03/21 06:18:46;;;;;;;26.43;21.17;;;10.40;1.00;;;;;;5126346;27;20457;-75
2024/03/21 06:21:14;;;;;;;24.80;20.80;;;10.40;1.00;;;;;;5129223;27;20468;-75
2024/03/21 06:23:40;;;;;;;22.23;19.83;;;10.50;1.00;;;;;;5125918;27;20511;-73
2024/03/21 06:26:10;;;;;;;24.20;20.50;;;10.60;1.00;;;;;;5124088;27;20860;-73
2024/03/21 06:28:36;;;;;;;24.00;20.03;;;10.60;1.00;;;;;;5127286;27;20456;-73
2024/03/21 06:31:03;;;;;;;27.73;21.63;;;10.60;1.00;;;;;;5123807;27;20476;-75
2024/03/21 06:33:29;;;;;;;24.43;20.80;;;10.60;1.00;;;;;;5111689;27;20486;-73
2024/03/21 06:35:57;;;;;;;25.30;20.93;;;10.70;1.00;;;;;;5101441;27;20466;-73
2024/03/21 06:38:24;;;;;;;27.47;21.43;;;10.80;1.00;;;;;;5112739;27;20484;-73
2024/03/21 06:40:51;;;;;;;25.37;22.57;;;10.80;1.00;;;;;;5118658;27;20464;-73
2024/03/21 06:43:17;;;;;;;25.07;20.63;;;10.80;1.00;;;;;;5121407;27;20828;-74
2024/03/21 06:45:48;;;;;;;26.37;22.47;;;10.90;1.00;;;;;;5120431;27;20492;-74
2024/03/21 06:48:14;;;;;;;31.17;20.00;;;10.90;1.00;;;;;;5120653;27;20453;-75
2024/03/21 06:50:41;;;;;;;27.50;20.57;;;11.10;1.00;;;;;;5116139;27;20465;-73
2024/03/21 06:53:07;;;;;;;27.90;22.37;;;11.20;1.00;;;;;;5113319;27;21231;-74
2024/03/21 06:55:39;;;;;;;24.10;21.57;;;11.30;1.00;;;;;;5118008;27;20896;-74
2024/03/21 06:58:05;;;;;;;27.30;20.10;;;11.30;1.00;;;;;;5120317;27;20503;-74
2024/03/21 07:00:32;;;;;;;24.57;20.60;;;11.20;1.00;;;;;;5118983;27;20570;-74
2024/03/21 07:02:58;;;;;;;24.50;20.77;;;11.30;1.00;;;;;;5098359;27;20486;-75
2024/03/21 07:05:26;;;;;;;22.80;20.40;;;11.30;1.00;;;;;;5115164;27;20457;-74
2024/03/21 07:07:52;;;;;;;23.87;20.97;;;11.30;1.00;;;;;;5119347;27;20471;-73
2024/03/21 07:10:20;;;;;;;25.43;22.30;;;11.30;1.00;;;;;;5121271;27;20457;-72
2024/03/21 07:12:48;;;;;;;28.10;22.27;;;11.30;1.00;;;;;;5123221;27;20465;-73
2024/03/21 07:15:16;;;;;;;25.70;22.30;;;11.20;1.00;;;;;;5119962;27;20578;-73
2024/03/21 07:17:42;;;;;;;26.63;22.53;;;11.20;1.00;;;;;;5123346;27;20449;-73
2024/03/21 07:20:11;;;;;;;27.40;22.77;;;11.20;1.00;;;;;;5124237;27;20500;-74
2024/03/21 07:22:38;;;;;;;29.80;24.77;;;11.10;1.00;;;;;;5117297;27;20426;-74
2024/03/21 07:25:07;;;;;;;32.17;25.80;;;11.10;1.00;;;;;;5120816;27;20454;-75
2024/03/21 07:27:33;;;;;;;31.63;25.03;;;11.10;1.00;;;;;;5128172;27;20476;-77
2024/03/21 07:30:07;;;;;;;31.87;25.03;;;11.00;1.00;;;;;;5128255;27;20441;-80
2024/03/21 07:32:33;;;;;;;28.87;24.70;;;10.90;1.00;;;;;;5121708;27;20475;-78
2024/03/21 07:35:00;;;;;;;30.00;25.43;;;10.90;1.00;;;;;;5127151;27;20469;-79
2024/03/21 07:37:26;;;;;;;29.57;24.87;;;10.90;1.00;;;;;;5126743;27;20511;-78
2024/03/21 07:39:53;;;;;;;34.67;26.47;;;10.90;1.00;;;;;;5127109;27;20478;-79
2024/03/21 07:42:19;;;;;;;33.50;26.73;;;10.80;1.00;;;;;;5114201;27;20544;-79
2024/03/21 07:44:46;;;;;;;37.97;28.57;;;10.90;1.00;;;;;;5126433;27;20529;-77
2024/03/21 07:47:15;;;;;;;30.20;25.67;;;10.90;1.00;;;;;;5127107;27;20956;-76
2024/03/21 07:49:40;;;;;;;30.87;26.30;;;11.00;1.00;;;;;;5125869;27;20501;-76
2024/03/21 07:52:08;;;;;;;36.53;30.90;;;11.00;1.00;;;;;;5122515;27;20544;-75
2024/03/21 07:54:33;;;;;;;28.57;24.30;;;11.00;1.00;;;;;;5128182;27;20473;-74
2024/03/21 07:57:01;;;;;;;32.20;26.10;;;11.00;1.00;;;;;;5121507;27;20500;-76
2024/03/21 07:59:28;;;;;;;32.67;25.40;;;11.00;1.00;;;;;;5124834;27;20552;-76
2024/03/21 08:01:55;;;;;;;29.97;26.50;;;11.10;1.00;;;;;;5124560;27;20491;-74
2024/03/21 08:04:23;;;;;;;34.00;27.83;;;11.10;1.00;;;;;;5109118;27;21242;-73
2024/03/21 08:06:50;;;;;;;34.37;26.67;;;11.10;1.00;;;;;;5122775;27;20463;-76
2024/03/21 08:09:17;;;;;;;31.70;25.87;;;11.00;1.00;;;;;;5126734;27;20463;-76
2024/03/21 08:11:44;;;;;;;27.50;24.50;;;11.00;1.00;;;;;;5122488;27;20417;-77
2024/03/21 08:14:10;;;;;;;30.57;25.47;;;10.80;1.00;;;;;;5123707;27;20529;-75
2024/03/21 08:16:37;;;;;;;29.43;25.57;;;10.70;1.00;;;;;;5123049;27;20480;-77
2024/03/21 08:19:03;;;;;;;31.00;25.10;;;10.70;1.00;;;;;;5112785;27;20484;-75
2024/03/21 08:21:31;;;;;;;29.53;26.33;;;10.70;1.00;;;;;;5115628;27;20464;-75
2024/03/21 08:23:57;;;;;;;33.83;28.83;;;10.70;1.00;;;;;;5115647;27;20465;-74
2024/03/21 08:26:24;;;;;;;33.47;27.77;;;10.80;1.00;;;;;;5116304;27;20465;-77
2024/03/21 08:28:50;;;;;;;34.40;28.87;;;11.00;1.00;;;;;;5123587;27;20501;-75
2024/03/21 08:31:18;;;;;;;29.90;26.33;;;11.00;1.00;;;;;;5120544;27;20438;-76
2024/03/21 08:33:44;;;;;;;35.50;28.47;;;11.20;1.00;;;;;;5117885;27;20595;-75
2024/03/21 08:36:11;;;;;;;33.00;27.20;;;11.30;1.00;;;;;;5108154;27;21707;-75
2024/03/21 08:38:38;;;;;;;33.30;27.10;;;11.30;1.00;;;;;;5108909;27;21025;-74
2024/03/21 08:41:07;;;;;;;37.83;28.23;;;11.30;1.00;;;;;;5107394;27;20454;-74
2024/03/21 08:43:33;;;;;;;32.07;28.60;;;11.20;1.00;;;;;;5102432;27;21288;-73
2024/03/21 08:46:01;;;;;;;33.57;26.33;;;11.20;1.00;;;;;;5118096;27;20468;-72
2024/03/21 08:48:27;;;;;;;32.17;27.63;;;11.30;1.00;;;;;;5120703;27;20503;-73
2024/03/21 08:50:53;;;;;;;40.60;28.50;;;11.30;1.00;;;;;;5122659;27;20441;-74
2024/03/21 08:53:19;;;;;;;39.53;28.03;;;11.30;1.00;;;;;;5112807;27;20445;-75
2024/03/21 08:55:48;;;;;;;34.13;30.40;;;11.30;1.00;;;;;;5121449;27;20915;-75
2024/03/21 08:58:16;;;;;;;36.60;29.20;;;11.30;1.00;;;;;;5119764;27;20458;-76
2024/03/21 09:00:43;;;;;;;37.03;28.17;;;11.30;1.00;;;;;;5125118;27;21322;-73
2024/03/21 09:03:11;;;;;;;36.40;29.50;;;11.30;1.00;;;;;;5124937;27;20543;-76
2024/03/21 09:05:38;;;;;;;34.90;29.87;;;11.30;1.00;;;;;;5126088;27;20469;-77
2024/03/21 09:08:04;;;;;;;34.60;29.40;;;11.30;1.00;;;;;;5124328;27;21373;-75
2024/03/21 09:10:31;;;;;;;38.73;30.53;;;11.40;1.00;;;;;;5126380;27;20531;-76
2024/03/21 09:12:58;;;;;;;38.80;30.17;;;11.40;1.00;;;;;;5123510;27;21333;-75
2024/03/21 09:15:25;;;;;;;36.13;29.50;;;11.40;1.00;;;;;;5124075;27;20468;-75
2024/03/21 09:17:51;;;;;;;32.10;27.30;;;11.50;1.00;;;;;;5125891;27;20477;-76
2024/03/21 09:20:18;;;;;;;35.67;30.27;;;11.50;1.00;;;;;;5116950;27;20560;-74
2024/03/21 09:22:45;;;;;;;35.77;27.83;;;11.50;1.00;;;;;;5127187;27;20492;-74
2024/03/21 09:25:12;;;;;;;40.00;29.03;;;11.50;1.00;;;;;;5105677;27;21157;-75
2024/03/21 09:27:38;;;;;;;33.97;30.30;;;11.60;1.00;;;;;;5115040;27;20511;-74
2024/03/21 09:30:08;;;;;;;32.33;27.40;;;11.60;1.00;;;;;;5124541;27;21178;-74
2024/03/21 09:32:34;;;;;;;32.67;28.87;;;11.70;1.00;;;;;;5126492;27;20457;-75
2024/03/21 09:35:01;;;;;;;37.60;29.70;;;11.80;1.00;;;;;;5128175;27;20462;-74
2024/03/21 09:37:27;;;;;;;36.97;29.00;;;11.80;1.00;;;;;;5118399;27;20993;-75
2024/03/21 09:39:54;;;;;;;38.10;30.27;;;11.70;1.00;;;;;;5124813;27;20456;-71
2024/03/21 09:42:21;;;;;;;36.37;28.93;;;11.80;1.00;;;;;;5106485;27;22206;-73
2024/03/21 09:44:49;;;;;;;32.97;28.50;;;11.90;1.00;;;;;;5101346;27;20586;-73
2024/03/21 09:47:19;;;;;;;34.03;30.37;;;11.80;1.00;;;;;;5107861;27;20480;-73
2024/03/21 09:49:46;;;;;;;32.67;28.17;;;11.80;1.00;;;;;;5122498;27;20978;-72
2024/03/21 09:52:13;;;;;;;32.57;27.10;;;11.90;1.00;;;;;;5102372;27;20464;-73
2024/03/21 09:54:40;;;;;;;34.40;27.20;;;12.00;1.00;;;;;;5105195;27;20972;-74
2024/03/21 09:57:11;;;;;;;28.90;24.97;;;11.90;1.00;;;;;;5105405;27;20442;-73
2024/03/21 09:59:38;;;;;;;33.10;26.53;;;11.90;1.00;;;;;;5128342;27;22214;-73
2024/03/21 10:02:09;;;;;;;34.37;26.80;;;11.90;1.00;;;;;;5123582;27;20462;-74
2024/03/21 10:04:43;;;;;;;31.03;26.40;;;12.10;1.00;;;;;;5124925;27;20969;-73
2024/03/21 10:07:19;;;;;;;31.57;24.83;;;12.20;1.00;;;;;;5125445;27;20990;-73
2024/03/21 10:09:55;;;;;;;33.17;26.03;;;12.40;1.00;;;;;;5109504;27;20466;-72
2024/03/21 10:12:22;;;;;;;28.90;25.87;;;12.80;1.00;;;;;;5125670;27;20554;-73
2024/03/21 10:14:51;;;;;;;32.53;22.83;;;13.30;1.00;;;;;;5127053;27;20557;-73
2024/03/21 10:17:17;;;;;;;25.57;22.33;;;13.70;1.00;;;;;;5110514;27;20545;-73
2024/03/21 10:19:46;;;;;;;22.80;19.83;;;14.10;1.00;;;;;;5122249;27;21027;-72
2024/03/21 10:22:17;;;;;;;21.50;19.37;;;14.80;1.00;;;;;;5125553;27;20472;-72
2024/03/21 10:24:44;;;;;;;18.53;16.70;;;15.80;1.00;;;;;;5122466;27;20484;-75
2024/03/21 10:27:14;;;;;;;17.73;15.93;;;16.90;1.00;;;;;;5122684;27;20582;-73
2024/03/21 10:29:41;;;;;;;18.10;15.30;;;17.60;1.00;;;;;;5112233;27;20615;-73
2024/03/21 10:32:16;;;;;;;17.37;15.17;;;18.00;1.00;;;;;;5110276;27;20459;-75
2024/03/21 10:34:52;;;;;;;14.80;12.23;;;19.30;1.00;;;;;;5115869;27;20562;-72
2024/03/21 10:37:20;;;;;;;15.17;13.70;;;20.40;1.00;;;;;;5124385;27;20466;-72
2024/03/21 10:39:48;;;;;;;13.27;11.97;;;21.60;1.00;;;;;;5123828;27;21466;-75
2024/03/21 10:42:26;;;;;;;8.33;7.53;;;22.30;1.00;;;;;;5105423;27;20484;-78
2024/03/21 10:44:55;;;;;;;10.80;9.80;;;23.40;1.00;;;;;;5105031;27;21107;-78
2024/03/21 10:47:22;;;;;;;8.33;7.53;;;24.40;1.00;;;;;;5120712;27;20494;-76
2024/03/21 10:49:52;;;;;;;7.37;6.77;;;25.10;1.00;;;;;;5123447;27;20512;-77
2024/03/21 10:52:18;;;;;;;8.30;7.50;;;25.70;1.00;;;;;;5110668;27;20915;-76
2024/03/21 10:54:49;;;;;;;9.00;7.67;;;26.10;1.00;;;;;;5125780;27;20819;-77
2024/03/21 10:57:16;;;;;;;8.60;7.90;;;26.40;1.00;;;;;;5125626;27;20489;-70
2024/03/21 10:59:43;;;;;;;7.70;7.00;;;26.80;1.00;;;;;;5126725;27;20458;-72
2024/03/21 11:02:13;;;;;;;7.90;7.00;;;27.60;1.00;;;;;;5120303;27;20452;-72
2024/03/21 11:04:42;;;;;;;6.27;5.63;;;28.60;1.00;;;;;;5123005;27;20417;-71
2024/03/21 11:07:13;;;;;;;6.43;4.80;;;29.30;1.00;;;;;;5119346;27;20551;-74
2024/03/21 11:09:45;;;;;;;5.87;5.30;;;29.90;1.00;;;;;;5122781;27;20460;-70
2024/03/21 11:12:11;;;;;;;5.30;4.80;;;30.30;1.00;;;;;;5124421;27;20468;-72
2024/03/21 11:14:38;;;;;;;4.60;4.20;;;30.60;1.00;;;;;;5122077;27;20876;-74
2024/03/21 11:17:05;;;;;;;4.00;3.70;;;30.90;1.00;;;;;;5118064;27;20484;-73
2024/03/21 11:19:32;;;;;;;4.37;3.97;;;31.10;1.00;;;;;;5113119;27;20456;-75
2024/03/21 11:21:58;;;;;;;4.67;3.80;;;31.10;1.00;;;;;;5121659;27;20461;-73
2024/03/21 11:24:27;;;;;;;4.20;3.90;;;31.00;1.00;;;;;;5119863;27;20491;-71
2024/03/21 11:26:52;;;;;;;5.30;4.90;;;31.00;1.00;;;;;;5121590;27;20497;-72
2024/03/21 11:29:20;;;;;;;4.97;4.50;;;31.00;1.00;;;;;;5122427;27;21811;-72
2024/03/21 11:31:46;;;;;;;6.03;4.90;;;31.30;1.00;;;;;;5124549;27;20541;-72
2024/03/21 11:34:15;;;;;;;5.90;4.80;;;31.50;1.00;;;;;;5104022;27;20855;-71
2024/03/21 11:36:41;;;;;;;5.30;4.80;;;31.60;1.00;;;;;;5117237;27;20472;-72
2024/03/21 11:39:14;;;;;;;4.93;4.53;;;29.90;1.00;;;;;;5122357;27;20464;-71
2024/03/21 11:41:43;;;;;;;6.33;5.50;;;29.00;1.00;;;;;;5116931;27;20469;-72
2024/03/21 11:44:14;;;;;;;4.90;4.50;;;29.40;1.00;;;;;;5118829;27;20941;-75
2024/03/21 11:46:40;;;;;;;5.90;5.40;;;30.10;1.00;;;;;;5119037;27;21319;-72
2024/03/21 11:49:10;;;;;;;4.77;4.40;;;29.90;1.00;;;;;;5104174;27;20580;-72
2024/03/21 11:51:37;;;;;;;5.37;4.70;;;29.50;1.00;;;;;;5117162;27;20463;-73
2024/03/21 11:54:05;;;;;;;8.57;4.60;;;28.00;1.00;;;;;;5108870;27;20466;-75
2024/03/21 11:56:31;;;;;;;3.50;3.20;;;26.10;1.00;;;;;;5105111;27;20481;-70
2024/03/21 11:58:59;;;;;;;4.47;4.10;;;24.00;1.00;;;;;;5111382;27;20836;-72
2024/03/21 12:01:25;;;;;;;3.77;3.47;;;22.30;1.00;;;;;;5113500;27;20479;-71
2024/03/21 12:03:53;;;;;;;6.23;4.80;;;21.30;1.00;;;;;;5109481;27;20870;-71
2024/03/21 12:06:19;;;;;;;6.90;4.73;;;20.40;1.00;;;;;;5113047;27;20981;-75
2024/03/21 12:08:47;;;;;;;6.00;5.50;;;19.60;1.00;;;;;;5122787;27;22323;-75
2024/03/21 12:11:15;;;;;;;6.50;4.70;;;18.80;1.00;;;;;;5119273;27;20460;-74
2024/03/21 12:16:22;;;;;;;8.17;6.30;;;18.10;1.00;;;;;;6006497;22;20546;-75
2024/03/21 12:18:49;;;;;;;5.90;5.30;;;18.10;1.00;;;;;;5097910;22;20495;-76
2024/03/21 12:21:18;;;;;;;6.80;5.70;;;18.40;1.00;;;;;;5103649;27;20461;-77
2024/03/21 12:23:45;;;;;;;9.87;5.43;;;18.70;1.00;;;;;;5101386;27;20459;-76
2024/03/21 12:26:15;;;;;;;12.50;6.77;;;20.10;1.00;;;;;;5103443;27;20811;-77
2024/03/21 12:28:42;;;;;;;5.30;4.80;;;21.20;1.00;;;;;;5103543;27;20459;-74
2024/03/21 12:31:14;;;;;;;5.00;4.57;;;22.40;1.00;;;;;;5102884;27;20462;-77
2024/03/21 12:33:44;;;;;;;13.93;6.37;;;24.30;1.00;;;;;;5094166;27;20459;-78
2024/03/21 12:36:12;;;;;;;7.80;4.87;;;25.60;1.00;;;;;;5084959;27;20497;-79
2024/03/21 12:38:41;;;;;;;10.13;5.33;;;26.10;1.00;;;;;;5094293;27;20456;-78
2024/03/21 12:41:11;;;;;;;5.60;3.70;;;25.80;1.00;;;;;;5105736;27;20886;-77
2024/03/21 12:43:37;;;;;;;6.43;3.90;;;25.40;1.00;;;;;;5108327;27;20452;-77
2024/03/21 12:46:06;;;;;;;8.27;3.90;;;24.80;1.00;;;;;;5108912;27;20472;-79
2024/03/21 12:48:33;;;;;;;5.20;4.70;;;23.80;1.00;;;;;;5101284;27;20464;-78